Nearby METAR Reports

 

KSJC - San Jose, California, USA
Distance from station: NE 14km
Updated: 14/11/2018 22:53
Haze, Mostly cloudy
Haze, Mostly cloudy
 Wind from S
Wind: S 6 km/h
Temperature: 9°C
Dew Point: -1°C
Humidity: 50%
Barometer: 1023.7 hPa
Summary: Haze
Clouds: Mostly cloudy
Visibility: 5 km
Cloud details: Few Clouds 30 m
Partly cloudy 305 m
Mostly cloudy 579 m
2018/11/15 06:53 KSJC 150653Z 17003KT 3SM HZ FEW001 SCT010 BKN019 09/M01 A3023 RMK AO2 SLP236 FU FEW001 FU SCT010 FU BKN019 T00941011
KNUQ - Moffett Nas/Mtn, California, USA
Distance from station: N 14km
Updated: 14/11/2018 22:56
Smoke, Clear
Smoke, Clear
 Wind from calm
Wind: Calm
Temperature: 8°C
Dew Point: 1°C
Humidity: 62%
Barometer: 1024 hPa
Summary: Smoke
Clouds: Clear
Visibility: 5 km
2018/11/15 06:56 KNUQ 150656Z 00000KT 3SM FU CLR 08/01 A3024 RMK AO2 SLP241 T00830006
 
KPAO - Palo Alto, California, USA
Distance from station: NNW 23km
Updated: 14/11/2018 20:47
NOT Current
Smoke, Clear
Smoke, Clear
 Wind from calm
Wind: Calm
Temperature: 8°C
Dew Point: 3°C
Humidity: 71%
Barometer: 1024.4 hPa
Summary: Smoke
Clouds: Clear
Visibility: 0 km
2018/11/15 04:47 KPAO 150447Z 00000KT 2 SM FU SKC 08/03 A3025 RMK LAST
KRHV - San Jose/Reid, California, USA
Distance from station: ENE 19km
Updated: 14/11/2018 14:48
NOT Current
Smoke, Clear
Smoke, Clear
 Wind from NNW
Wind: NNW 9 km/h
Temperature: 20°C
Dew Point: 0°C
Humidity: 26%
Barometer: 1023.4 hPa
Summary: Smoke
Clouds: Clear
Visibility: 3 km
2018/11/14 22:48 KRHV 142248Z 34005KT 2SM FU SKC 20/00 A3022
 
KOAK - Oakland, California, USA
Distance from station: NNW 50km
Updated: 14/11/2018 22:53
Haze, Mostly cloudy
Haze, Mostly cloudy
 Wind from ESE
Wind: ESE 6 km/h
Temperature: 8°C
Dew Point: -3°C
Humidity: 46%
Barometer: 1024 hPa
Summary: Haze
Clouds: Mostly cloudy
Visibility: 4 km
Cloud details: Partly cloudy 640 m
Mostly cloudy 762 m
2018/11/15 06:53 KOAK 150653Z 11003KT 2 1/2SM HZ SCT021 BKN025 08/M03 A3024 RMK AO2 SLP238 FU SCT021 FU BKN025 T00781028
KSQL - San Carlos Airpo, California, USA
Distance from station: NW 34km
Updated: 14/11/2018 22:55
Haze, Overcast
Haze, Overcast
 Wind from calm
Wind: Calm
Barometer: 1023.4 hPa
Summary: Haze
Clouds: Overcast
Visibility: 6 km
Cloud details: Overcast 488 m
2018/11/15 06:55 KSQL 150655Z AUTO 00000KT 4SM HZ OVC016 A3022 RMK AO2
 
KSFO - San Francisco, California, USA
Distance from station: NW 49km
Updated: 14/11/2018 22:56
Haze, Mostly cloudy
Haze, Mostly cloudy
 Wind from calm
Wind: Calm
Temperature: 11°C
Dew Point: -1°C
Humidity: 44%
Barometer: 1023 hPa
Summary: Haze
Clouds: Mostly cloudy
Visibility: 6 km
Cloud details: Few Clouds 152 m
Mostly cloudy 640 m
2018/11/15 06:56 KSFO 150656Z 00000KT 4SM HZ FEW005 BKN021 11/M01 A3021 RMK AO2 SLP231 T01061011
KE16 - San Martin, California, USA
Distance from station: ESE 43km
Updated: 14/11/2018 22:50
Haze, Overcast
Haze, Overcast
 Wind from N
Wind: N 6 km/h
Temperature: 6°C
Dew Point: -3°C
Humidity: 53%
Barometer: 1024.4 hPa
Summary: Haze
Clouds: Overcast
Visibility: 6 km
Cloud details: Overcast 396 m
2018/11/15 06:50 KE16 150650Z AUTO 35003KT 4SM HZ OVC013 06/M03 A3025 RMK AO2
 
KWVI - Watsonville, California, USA
Distance from station: SSE 44km
Updated: 14/11/2018 22:53
Clear
Clear
 Wind from NNW
Wind: NNW 7 km/h
Temperature: 9°C
Wind Chill: 8°C
Dew Point: -4°C
Humidity: 40%
Barometer: 1023.4 hPa
Clouds: Clear
Visibility: 16 km
2018/11/15 06:53 KWVI 150653Z AUTO 33004KT 10SM CLR 09/M04 A3022 RMK AO2 SLP232 T00891044 $
KHAF - Half Moon Bay, California, USA
Distance from station: WNW 50km
Updated: 14/11/2018 23:00
Haze, Overcast
Haze, Overcast
 Wind from calm
Wind: Calm
Temperature: 7°C
Dew Point: -2°C
Humidity: 53%
Barometer: 1023.4 hPa
Summary: Haze
Clouds: Overcast
Visibility: 5 km
Cloud details: Few Clouds 91 m
Mostly cloudy 640 m
Overcast 1341 m
2018/11/15 07:00 KHAF 150700Z AUTO 00000KT 3SM HZ FEW003 BKN021 OVC044 07/M02 A3022 RMK AO2
 
KHWD - Hayward, California, USA
Distance from station: N 44km
Updated: 14/11/2018 22:54
Haze, Smoke, Clear
Haze, Smoke, Clear
 Wind from ENE
Wind: ENE 6 km/h
Temperature: 9°C
Dew Point: -6°C
Humidity: 34%
Barometer: 1023.7 hPa
Summary: Haze, Smoke
Clouds: Clear
Visibility: 4 km
2018/11/15 06:54 KHWD 150654Z AUTO 07003KT 2 1/2SM HZ FU CLR 09/M06 A3023 RMK AO2 SLP245 T00941056
KLVK - Livermore, California, USA
Distance from station: NNE 51km
Updated: 14/11/2018 22:53
Haze, Smoke, Clear
Haze, Smoke, Clear
 Wind from calm
Wind: Calm
Temperature: 6°C
Dew Point: -7°C
Humidity: 39%
Barometer: 1023.7 hPa
Summary: Haze, Smoke
Clouds: Clear
Visibility: 3 km
2018/11/15 06:53 KLVK 150653Z AUTO 00000KT 2SM HZ FU CLR 06/M07 A3023 RMK AO2 SLP237 T00561072